createdAt,value
2018-03-31T00:00:52.972Z,6.50
2018-03-31T00:03:19.247Z,6.40
2018-03-31T00:05:45.933Z,6.40
2018-03-31T00:08:12.221Z,6.30
2018-03-31T00:10:38.478Z,6.30
2018-03-31T00:13:05.133Z,6.30
2018-03-31T00:15:31.822Z,6.30
2018-03-31T00:17:58.066Z,6.30
2018-03-31T00:20:24.404Z,6.10
2018-03-31T00:22:50.698Z,6.10
2018-03-31T00:25:17.337Z,6.20
2018-03-31T00:27:43.644Z,6.20
2018-03-31T00:30:09.935Z,6.30
2018-03-31T00:32:36.182Z,6.20
2018-03-31T00:35:02.841Z,6.30
2018-03-31T00:37:29.502Z,6.30
2018-03-31T00:39:55.758Z,6.30
2018-03-31T00:42:22.049Z,6.30
2018-03-31T00:44:48.713Z,6.30
2018-03-31T00:47:15.347Z,6.30
2018-03-31T00:49:41.766Z,6.30
2018-03-31T00:52:08.057Z,6.30
2018-03-31T00:54:34.313Z,6.30
2018-03-31T00:57:00.594Z,6.30
2018-03-31T00:59:26.886Z,6.30
2018-03-31T01:01:53.139Z,6.30
2018-03-31T01:04:19.511Z,6.40
2018-03-31T01:06:45.798Z,6.40
2018-03-31T01:09:12.058Z,6.40
2018-03-31T01:11:38.358Z,6.30
2018-03-31T01:14:04.782Z,6.30
2018-03-31T01:16:31.089Z,6.30
2018-03-31T01:18:57.374Z,6.30
2018-03-31T01:21:23.877Z,6.30
2018-03-31T01:23:50.131Z,6.40
2018-03-31T01:26:16.424Z,6.40
2018-03-31T01:28:42.837Z,6.40
2018-03-31T01:31:09.097Z,6.30
2018-03-31T01:33:35.376Z,6.30
2018-03-31T01:36:01.667Z,6.30
2018-03-31T01:38:27.933Z,6.30
2018-03-31T01:40:54.618Z,6.20
2018-03-31T01:43:20.905Z,6.20
2018-03-31T01:45:47.161Z,6.30
2018-03-31T01:48:13.822Z,6.30
2018-03-31T01:50:40.157Z,6.30
2018-03-31T01:53:06.780Z,6.30
2018-03-31T01:55:33.078Z,6.30
2018-03-31T01:57:59.361Z,6.30
2018-03-31T02:00:25.621Z,6.30
2018-03-31T02:02:52.296Z,6.30
2018-03-31T02:05:18.679Z,6.30
2018-03-31T02:07:44.929Z,6.40
2018-03-31T02:10:11.261Z,6.30
2018-03-31T02:12:37.640Z,6.30
2018-03-31T02:15:03.922Z,6.20
2018-03-31T02:17:30.213Z,6.20
2018-03-31T02:19:56.498Z,6.20
2018-03-31T02:22:22.750Z,6.20
2018-03-31T02:24:49.034Z,6.20
2018-03-31T02:27:15.321Z,6.20
2018-03-31T02:29:41.692Z,6.20
2018-03-31T02:32:07.983Z,6.20
2018-03-31T02:34:34.278Z,6.10
2018-03-31T02:37:00.616Z,6.10
2018-03-31T02:39:26.914Z,6.00
2018-03-31T02:42:00.848Z,6.00
2018-03-31T02:44:27.133Z,6.00
2018-03-31T02:46:53.418Z,5.90
2018-03-31T02:49:19.670Z,5.90
2018-03-31T02:51:45.990Z,5.90
2018-03-31T02:54:12.653Z,5.80
2018-03-31T02:56:38.958Z,5.80
2018-03-31T02:59:05.253Z,5.70
2018-03-31T03:01:31.544Z,5.80
2018-03-31T03:03:58.174Z,5.90
2018-03-31T03:06:24.470Z,5.90
2018-03-31T03:08:50.768Z,5.90
2018-03-31T03:11:17.398Z,5.90
2018-03-31T03:13:43.689Z,5.90
2018-03-31T03:16:10.051Z,5.90
2018-03-31T03:18:36.318Z,5.90
2018-03-31T03:21:02.607Z,5.90
2018-03-31T03:23:29.261Z,5.80
2018-03-31T03:25:55.513Z,5.80
2018-03-31T03:28:21.813Z,5.70
2018-03-31T03:30:48.106Z,5.70
2018-03-31T03:33:14.369Z,5.70
2018-03-31T03:35:40.657Z,5.60
2018-03-31T03:38:07.309Z,5.60
2018-03-31T03:40:33.981Z,5.70
2018-03-31T03:43:00.269Z,5.70
2018-03-31T03:45:26.554Z,5.70
2018-03-31T03:47:52.803Z,5.60
2018-03-31T03:50:19.156Z,5.60
2018-03-31T03:52:45.441Z,5.60
2018-03-31T03:55:11.696Z,5.60
2018-03-31T03:57:38.377Z,5.60
2018-03-31T04:00:04.677Z,5.60
2018-03-31T04:02:31.300Z,5.60
2018-03-31T04:04:57.581Z,5.60
2018-03-31T04:07:24.281Z,5.60
2018-03-31T04:09:50.531Z,5.60
2018-03-31T04:12:16.825Z,5.60
2018-03-31T04:14:43.114Z,5.60
2018-03-31T04:17:09.378Z,5.50
2018-03-31T04:19:35.661Z,5.60
2018-03-31T04:22:01.962Z,5.50
2018-03-31T04:24:28.588Z,5.40
2018-03-31T04:26:54.873Z,5.40
2018-03-31T04:29:21.160Z,5.30
2018-03-31T04:31:47.405Z,5.40
2018-03-31T04:34:13.699Z,5.40
2018-03-31T04:36:40.058Z,5.50
2018-03-31T04:39:06.309Z,5.40
2018-03-31T04:41:32.607Z,5.30
2018-03-31T04:43:59.265Z,5.30
2018-03-31T04:46:25.886Z,5.30
2018-03-31T04:48:52.169Z,5.30
2018-03-31T04:51:18.655Z,5.30
2018-03-31T04:53:44.970Z,5.40
2018-03-31T04:56:11.262Z,5.40
2018-03-31T04:58:37.546Z,5.40
2018-03-31T05:01:03.793Z,5.30
2018-03-31T05:03:30.129Z,5.10
2018-03-31T05:05:56.457Z,5.10
2018-03-31T05:08:22.706Z,5.00
2018-03-31T05:10:49.010Z,4.90
2018-03-31T05:13:15.801Z,5.00
2018-03-31T05:15:42.102Z,5.00
2018-03-31T05:18:08.754Z,5.00
2018-03-31T05:20:35.409Z,5.00
2018-03-31T05:23:02.034Z,5.10
2018-03-31T05:25:28.326Z,5.10
2018-03-31T05:27:54.648Z,5.10
2018-03-31T05:30:21.274Z,5.10
2018-03-31T05:32:47.594Z,5.10
2018-03-31T05:35:13.891Z,5.00
2018-03-31T05:37:40.148Z,5.00
2018-03-31T05:40:06.519Z,4.90
2018-03-31T05:42:32.817Z,4.90
2018-03-31T05:44:59.121Z,4.90
2018-03-31T05:47:25.408Z,5.00
2018-03-31T05:49:51.694Z,5.00
2018-03-31T05:52:17.981Z,5.10
2018-03-31T05:54:44.280Z,5.00
2018-03-31T05:57:10.585Z,5.00
2018-03-31T05:59:36.917Z,4.90
2018-03-31T06:02:03.214Z,4.90
2018-03-31T06:04:29.873Z,5.00
2018-03-31T06:06:56.500Z,5.00
2018-03-31T06:09:22.789Z,5.00
2018-03-31T06:11:49.075Z,5.00
2018-03-31T06:14:22.390Z,5.10
2018-03-31T06:16:48.694Z,5.00
2018-03-31T06:19:14.983Z,5.00
2018-03-31T06:21:41.661Z,5.00
2018-03-31T06:24:07.945Z,5.00
2018-03-31T06:26:34.201Z,5.00
2018-03-31T06:29:00.493Z,5.00
2018-03-31T06:31:26.842Z,4.90
2018-03-31T06:33:53.114Z,4.90
2018-03-31T06:36:19.406Z,4.80
2018-03-31T06:38:45.691Z,4.90
2018-03-31T06:41:11.954Z,4.90
2018-03-31T06:43:38.299Z,4.90
2018-03-31T06:46:04.589Z,4.90
2018-03-31T06:48:30.850Z,4.90
2018-03-31T06:50:57.269Z,5.00
2018-03-31T06:53:23.594Z,5.10
2018-03-31T06:55:49.858Z,5.10
2018-03-31T06:58:16.155Z,5.00
2018-03-31T07:00:42.853Z,4.90
2018-03-31T07:03:09.130Z,5.00
2018-03-31T07:05:35.409Z,5.00
2018-03-31T07:08:01.728Z,4.90
2018-03-31T07:10:28.358Z,4.80
2018-03-31T07:12:54.643Z,4.80
2018-03-31T07:15:20.929Z,4.70
2018-03-31T07:17:47.186Z,4.80
2018-03-31T07:20:13.485Z,4.80
2018-03-31T07:22:39.774Z,4.90
2018-03-31T07:25:06.024Z,4.90
2018-03-31T07:27:32.690Z,5.10
2018-03-31T07:29:58.974Z,5.10
2018-03-31T07:32:25.229Z,5.10
2018-03-31T07:34:51.524Z,5.20
2018-03-31T07:37:17.818Z,5.30
2018-03-31T07:39:44.069Z,5.40
2018-03-31T07:42:10.725Z,5.50
2018-03-31T07:44:37.395Z,5.60
2018-03-31T07:47:03.645Z,5.60
2018-03-31T07:49:29.960Z,5.90
2018-03-31T07:51:56.655Z,5.80
2018-03-31T07:54:22.914Z,5.80
2018-03-31T07:56:50.410Z,5.70
2018-03-31T07:59:18.114Z,5.70
2018-03-31T08:01:45.920Z,5.70
2018-03-31T08:04:13.438Z,5.80
2018-03-31T08:06:41.448Z,5.60
2018-03-31T08:09:09.036Z,5.60
2018-03-31T08:11:36.274Z,5.70
2018-03-31T08:14:04.471Z,5.60
2018-03-31T08:16:31.599Z,5.60
2018-03-31T08:18:58.452Z,5.60
2018-03-31T08:21:25.769Z,5.60
2018-03-31T08:23:53.118Z,5.60
2018-03-31T08:26:19.904Z,5.60
2018-03-31T08:28:46.348Z,5.80
2018-03-31T08:31:12.629Z,6.10
2018-03-31T08:33:39.309Z,6.20
2018-03-31T08:36:05.602Z,6.20
2018-03-31T08:38:31.863Z,6.30
2018-03-31T08:40:58.525Z,6.30
2018-03-31T08:43:24.824Z,6.30
2018-03-31T08:45:51.082Z,6.20
2018-03-31T08:48:17.737Z,6.40
2018-03-31T08:50:44.533Z,6.60
2018-03-31T08:53:10.791Z,6.60
2018-03-31T08:55:37.086Z,6.50
2018-03-31T08:58:03.373Z,6.70
2018-03-31T09:00:29.716Z,6.80
2018-03-31T09:02:56.003Z,6.70
2018-03-31T09:05:22.294Z,6.70
2018-03-31T09:07:48.554Z,6.70
2018-03-31T09:10:14.850Z,6.70
2018-03-31T09:12:41.141Z,6.90
2018-03-31T09:15:07.773Z,6.90
2018-03-31T09:17:34.057Z,6.90
2018-03-31T09:20:00.347Z,7.10
2018-03-31T09:22:26.642Z,7.20
2018-03-31T09:24:52.939Z,7.40
2018-03-31T09:27:19.242Z,7.50
2018-03-31T09:29:45.499Z,7.70
2018-03-31T09:32:11.798Z,7.80
2018-03-31T09:34:38.471Z,7.50
2018-03-31T09:37:04.738Z,7.50
2018-03-31T09:39:31.055Z,7.50
2018-03-31T09:41:57.345Z,7.40
2018-03-31T09:44:23.754Z,7.50
2018-03-31T09:46:50.090Z,7.60
2018-03-31T09:49:16.373Z,7.70
2018-03-31T09:51:42.666Z,7.70
2018-03-31T09:54:08.962Z,7.70
2018-03-31T09:56:35.626Z,7.50
2018-03-31T09:59:02.259Z,7.60
2018-03-31T10:01:28.942Z,7.60
2018-03-31T10:03:55.234Z,7.50
2018-03-31T10:06:21.498Z,7.50
2018-03-31T10:08:48.158Z,7.10
2018-03-31T10:11:14.446Z,7.20
2018-03-31T10:13:40.705Z,7.00
2018-03-31T10:16:06.993Z,7.10
2018-03-31T10:18:33.297Z,7.10
2018-03-31T10:20:59.549Z,7.30
2018-03-31T10:23:26.213Z,7.20
2018-03-31T10:25:52.869Z,7.20
2018-03-31T10:28:19.170Z,7.20
2018-03-31T10:30:45.464Z,7.10
2018-03-31T10:33:11.811Z,7.10
2018-03-31T10:35:38.070Z,7.10
2018-03-31T10:38:04.357Z,7.10
2018-03-31T10:40:31.017Z,7.50
2018-03-31T10:42:57.649Z,7.50
2018-03-31T10:45:24.350Z,7.50
2018-03-31T10:47:50.642Z,7.50
2018-03-31T10:50:17.471Z,7.50
2018-03-31T10:52:44.041Z,7.50
2018-03-31T10:55:10.945Z,7.90
2018-03-31T10:57:37.193Z,7.90
2018-03-31T11:00:03.481Z,8.20
2018-03-31T11:02:30.145Z,8.40
2018-03-31T11:04:56.774Z,8.40
2018-03-31T11:07:23.438Z,8.20
2018-03-31T11:09:49.725Z,8.20
2018-03-31T11:12:16.025Z,8.10
2018-03-31T11:14:42.682Z,8.00
2018-03-31T11:17:08.970Z,8.00
2018-03-31T11:19:35.273Z,8.00
2018-03-31T11:22:01.926Z,7.90
2018-03-31T11:24:28.222Z,7.90
2018-03-31T11:26:54.498Z,8.00
2018-03-31T11:29:20.783Z,7.90
2018-03-31T11:31:47.065Z,7.90
2018-03-31T11:34:13.682Z,7.60
2018-03-31T11:36:39.973Z,7.60
2018-03-31T11:39:06.259Z,7.50
2018-03-31T11:41:32.530Z,7.40
2018-03-31T11:43:59.215Z,7.30
2018-03-31T11:46:25.497Z,7.30
2018-03-31T11:48:51.792Z,7.30
2018-03-31T11:51:18.109Z,7.50
2018-03-31T11:53:44.767Z,7.90
2018-03-31T11:56:11.026Z,7.90
2018-03-31T11:58:37.316Z,8.20
2018-03-31T12:01:03.656Z,8.50
2018-03-31T12:03:29.913Z,8.80
2018-03-31T12:05:56.565Z,9.10
2018-03-31T12:08:23.225Z,9.40
2018-03-31T12:10:49.489Z,9.40
2018-03-31T12:13:15.785Z,9.60
2018-03-31T12:15:42.453Z,9.70
2018-03-31T12:18:08.718Z,9.70
2018-03-31T12:20:35.020Z,9.50
2018-03-31T12:23:01.689Z,8.70
2018-03-31T12:25:27.970Z,8.70
2018-03-31T12:27:54.286Z,8.30
2018-03-31T12:30:20.599Z,8.10
2018-03-31T12:32:47.284Z,8.00
2018-03-31T12:35:13.598Z,8.00
2018-03-31T12:37:40.258Z,8.40
2018-03-31T12:40:06.517Z,8.40
2018-03-31T12:42:32.810Z,8.60
2018-03-31T12:44:59.469Z,8.80
2018-03-31T12:47:26.094Z,9.10
2018-03-31T12:49:52.385Z,9.10
2018-03-31T12:52:18.769Z,9.20
2018-03-31T12:54:45.007Z,9.40
2018-03-31T12:57:11.310Z,9.50
2018-03-31T12:59:37.606Z,9.60
2018-03-31T13:02:03.874Z,9.60
2018-03-31T13:04:30.214Z,9.60
2018-03-31T13:06:56.486Z,9.70
2018-03-31T13:09:22.741Z,9.70
2018-03-31T13:11:49.033Z,9.70
2018-03-31T13:14:15.742Z,9.70
2018-03-31T13:16:42.001Z,9.70
2018-03-31T13:19:08.297Z,9.50
2018-03-31T13:21:34.589Z,9.50
2018-03-31T13:24:01.220Z,9.40
2018-03-31T13:26:27.522Z,9.40
2018-03-31T13:28:53.818Z,9.30
2018-03-31T13:31:20.450Z,9.10
2018-03-31T13:33:46.750Z,9.10
2018-03-31T13:36:13.048Z,9.10
2018-03-31T13:38:39.682Z,8.90
2018-03-31T13:41:05.986Z,8.90
2018-03-31T13:43:32.285Z,8.70
2018-03-31T13:45:58.926Z,8.70
2018-03-31T13:48:25.278Z,8.70
2018-03-31T13:50:52.017Z,8.90
2018-03-31T13:53:18.686Z,9.00
2018-03-31T13:55:45.371Z,9.10
2018-03-31T13:58:11.657Z,9.10
2018-03-31T14:00:37.922Z,9.10
2018-03-31T14:03:04.584Z,9.40
2018-03-31T14:05:30.890Z,9.40
2018-03-31T14:07:57.146Z,9.40
2018-03-31T14:10:23.818Z,9.60
2018-03-31T14:12:50.122Z,9.60
2018-03-31T14:15:16.385Z,9.70
2018-03-31T14:17:43.054Z,9.60
2018-03-31T14:20:09.350Z,9.60
2018-03-31T14:22:36.009Z,9.60
2018-03-31T14:25:02.681Z,9.50
2018-03-31T14:27:28.989Z,9.60
2018-03-31T14:29:55.254Z,9.50
2018-03-31T14:32:21.923Z,9.40
2018-03-31T14:34:48.216Z,9.40
2018-03-31T14:37:14.478Z,9.30
2018-03-31T14:39:41.162Z,9.30
2018-03-31T14:42:07.497Z,9.30
2018-03-31T14:44:33.757Z,9.30
2018-03-31T14:47:00.098Z,9.30
2018-03-31T14:49:26.389Z,9.20
2018-03-31T14:51:53.105Z,9.00
2018-03-31T14:54:19.396Z,9.10
2018-03-31T14:56:46.062Z,8.90
2018-03-31T14:59:12.330Z,9.00
2018-03-31T15:01:38.650Z,8.80
2018-03-31T15:04:04.942Z,8.60
2018-03-31T15:06:31.222Z,8.40
2018-03-31T15:08:57.559Z,8.40
2018-03-31T15:11:23.855Z,8.30
2018-03-31T15:13:50.138Z,8.30
2018-03-31T15:16:16.460Z,8.20
2018-03-31T15:18:42.775Z,8.20
2018-03-31T15:21:09.038Z,8.40
2018-03-31T15:23:35.325Z,8.30
2018-03-31T15:26:01.622Z,8.30
2018-03-31T15:28:28.471Z,8.60
2018-03-31T15:30:54.854Z,8.60
2018-03-31T15:33:21.150Z,8.70
2018-03-31T15:35:47.410Z,8.80
2018-03-31T15:38:15.954Z,8.80
2018-03-31T15:40:42.473Z,8.80
2018-03-31T15:43:08.914Z,8.80
2018-03-31T15:45:35.209Z,8.80
2018-03-31T15:48:01.501Z,8.70
2018-03-31T15:50:27.761Z,8.70
2018-03-31T15:52:54.159Z,8.60
2018-03-31T15:55:20.818Z,8.60
2018-03-31T15:57:47.096Z,8.70
2018-03-31T16:00:13.381Z,8.60
2018-03-31T16:02:40.058Z,8.50
2018-03-31T16:05:06.314Z,8.50
2018-03-31T16:07:32.605Z,8.50
2018-03-31T16:09:58.898Z,8.50
2018-03-31T16:12:26.091Z,8.40
2018-03-31T16:14:52.426Z,8.30
2018-03-31T16:17:18.709Z,8.30
2018-03-31T16:19:45.346Z,8.00
2018-03-31T16:22:12.009Z,7.70
2018-03-31T16:24:38.308Z,7.70
2018-03-31T16:27:04.570Z,7.60
2018-03-31T16:29:30.857Z,7.50
2018-03-31T16:31:57.142Z,7.40
2018-03-31T16:34:23.406Z,7.40
2018-03-31T16:36:50.077Z,7.40
2018-03-31T16:39:16.398Z,7.40
2018-03-31T16:41:43.026Z,7.50
2018-03-31T16:44:09.385Z,7.50
2018-03-31T16:46:35.674Z,7.60
2018-03-31T16:49:01.977Z,7.50
2018-03-31T16:51:28.637Z,7.50
2018-03-31T16:53:54.966Z,7.50
2018-03-31T16:56:21.609Z,7.60
2018-03-31T16:58:48.322Z,7.60
2018-03-31T17:01:14.618Z,7.60
2018-03-31T17:03:41.369Z,7.60
2018-03-31T17:06:07.777Z,7.60
2018-03-31T17:08:34.065Z,7.60
2018-03-31T17:11:00.359Z,7.60
2018-03-31T17:13:26.659Z,7.60
2018-03-31T17:15:52.997Z,7.50
2018-03-31T17:18:19.306Z,7.50
2018-03-31T17:20:45.977Z,7.50
2018-03-31T17:23:12.364Z,7.50
2018-03-31T17:25:38.625Z,7.50
2018-03-31T17:28:05.024Z,7.40
2018-03-31T17:30:31.320Z,7.40
2018-03-31T17:32:58.038Z,7.30
2018-03-31T17:35:24.350Z,7.30
2018-03-31T17:37:50.645Z,7.30
2018-03-31T17:40:16.913Z,7.20
2018-03-31T17:42:43.217Z,7.20
2018-03-31T17:45:09.624Z,7.10
2018-03-31T17:47:35.893Z,7.10
2018-03-31T17:50:02.213Z,7.10
2018-03-31T17:52:28.529Z,7.10
2018-03-31T17:54:54.856Z,7.10
2018-03-31T17:57:21.225Z,7.10
2018-03-31T17:59:47.531Z,7.10
2018-03-31T18:02:14.210Z,7.00
2018-03-31T18:04:40.501Z,7.00
2018-03-31T18:07:06.845Z,7.00
2018-03-31T18:09:33.101Z,7.00
2018-03-31T18:11:59.761Z,7.10
2018-03-31T18:14:26.434Z,7.10
2018-03-31T18:16:52.690Z,7.10
2018-03-31T18:19:18.990Z,7.10
2018-03-31T18:21:45.675Z,7.10
2018-03-31T18:24:11.938Z,7.10
2018-03-31T18:26:38.281Z,7.10
2018-03-31T18:29:04.565Z,7.10
2018-03-31T18:31:31.246Z,7.00
2018-03-31T18:33:57.530Z,7.00
2018-03-31T18:36:23.849Z,7.00
2018-03-31T18:38:50.188Z,7.00
2018-03-31T18:41:16.485Z,7.00
2018-03-31T18:43:42.768Z,7.00
2018-03-31T18:46:09.034Z,7.00
2018-03-31T18:48:35.361Z,7.00
2018-03-31T18:51:01.650Z,6.90
2018-03-31T18:53:28.121Z,6.90
2018-03-31T18:55:54.458Z,7.00
2018-03-31T18:58:20.765Z,6.90
2018-03-31T19:00:47.439Z,6.90
2018-03-31T19:03:13.802Z,6.90
2018-03-31T19:05:40.090Z,6.90
2018-03-31T19:08:06.342Z,6.80
2018-03-31T19:10:33.027Z,6.80
2018-03-31T19:12:59.365Z,6.70
2018-03-31T19:15:25.620Z,6.70
2018-03-31T19:17:51.910Z,6.70
2018-03-31T19:20:18.570Z,6.70
2018-03-31T19:22:45.206Z,6.70
2018-03-31T19:25:17.889Z,6.70
2018-03-31T19:27:44.189Z,6.70
2018-03-31T19:30:10.454Z,6.70
2018-03-31T19:32:36.744Z,6.70
2018-03-31T19:35:03.099Z,6.70
2018-03-31T19:37:29.390Z,6.70
2018-03-31T19:39:55.674Z,6.70
2018-03-31T19:42:21.966Z,6.80
2018-03-31T19:44:48.229Z,6.70
2018-03-31T19:47:14.886Z,6.80
2018-03-31T19:49:41.562Z,6.70
2018-03-31T19:52:07.826Z,6.70
2018-03-31T19:54:34.165Z,6.60
2018-03-31T19:57:00.453Z,6.60
2018-03-31T19:59:27.074Z,6.50
2018-03-31T20:01:53.377Z,6.50
2018-03-31T20:04:19.658Z,6.40
2018-03-31T20:06:45.921Z,6.40
2018-03-31T20:09:12.639Z,6.40
2018-03-31T20:11:38.931Z,6.40
2018-03-31T20:14:05.561Z,6.40
2018-03-31T20:16:31.837Z,6.40
2018-03-31T20:18:58.135Z,6.40
2018-03-31T20:21:24.401Z,6.40
2018-03-31T20:23:50.695Z,6.50
2018-03-31T20:26:16.997Z,6.40
2018-03-31T20:28:43.257Z,6.50
2018-03-31T20:31:09.555Z,6.50
2018-03-31T20:33:36.294Z,6.50
2018-03-31T20:36:02.922Z,6.50
2018-03-31T20:38:29.262Z,6.50
2018-03-31T20:40:55.554Z,6.50
2018-03-31T20:43:21.818Z,6.50
2018-03-31T20:45:48.105Z,6.50
2018-03-31T20:48:14.765Z,6.50
2018-03-31T20:50:41.415Z,6.50
2018-03-31T20:53:08.086Z,6.50
2018-03-31T20:55:34.401Z,6.50
2018-03-31T20:58:01.032Z,6.50
2018-03-31T21:00:27.430Z,6.50
2018-03-31T21:02:53.713Z,6.50
2018-03-31T21:05:19.980Z,6.40
2018-03-31T21:07:46.659Z,6.40
2018-03-31T21:10:12.970Z,6.50
2018-03-31T21:12:39.605Z,6.50
2018-03-31T21:15:05.889Z,6.50
2018-03-31T21:17:32.181Z,6.50
2018-03-31T21:19:58.435Z,6.50
2018-03-31T21:22:25.102Z,6.40
2018-03-31T21:24:51.770Z,6.40
2018-03-31T21:27:18.025Z,6.40
2018-03-31T21:29:44.309Z,6.50
2018-03-31T21:32:10.602Z,6.50
2018-03-31T21:34:36.849Z,6.50
2018-03-31T21:37:03.158Z,6.50
2018-03-31T21:39:29.448Z,6.50
2018-03-31T21:41:55.701Z,6.50
2018-03-31T21:44:21.994Z,6.50
2018-03-31T21:46:48.286Z,6.50
2018-03-31T21:49:14.542Z,6.50
2018-03-31T21:51:41.233Z,6.50
2018-03-31T21:54:07.585Z,6.50
2018-03-31T21:56:33.882Z,6.50
2018-03-31T21:59:00.543Z,6.50
2018-03-31T22:01:26.830Z,6.50
2018-03-31T22:03:53.117Z,6.40
2018-03-31T22:06:19.778Z,6.30
2018-03-31T22:08:46.070Z,6.30
2018-03-31T22:11:12.322Z,6.30
2018-03-31T22:13:44.749Z,6.20
2018-03-31T22:16:11.034Z,6.20
2018-03-31T22:18:37.301Z,6.20
2018-03-31T22:21:03.594Z,6.10
2018-03-31T22:23:29.881Z,6.10
2018-03-31T22:25:56.513Z,6.10
2018-03-31T22:28:22.797Z,6.00
2018-03-31T22:30:49.094Z,5.90
2018-03-31T22:33:15.348Z,5.90
2018-03-31T22:35:41.639Z,5.80
2018-03-31T22:38:07.925Z,5.80
2018-03-31T22:40:34.182Z,5.70
2018-03-31T22:43:00.842Z,5.50
2018-03-31T22:45:27.500Z,5.50
2018-03-31T22:47:53.751Z,5.50
2018-03-31T22:50:20.073Z,5.50
2018-03-31T22:52:46.734Z,5.40
2018-03-31T22:55:13.110Z,5.40
2018-03-31T22:57:39.398Z,5.40
2018-03-31T23:00:06.059Z,5.40
2018-03-31T23:02:32.313Z,5.40
2018-03-31T23:04:58.606Z,5.30
2018-03-31T23:07:24.913Z,5.30
2018-03-31T23:09:51.198Z,5.20
2018-03-31T23:12:17.486Z,5.20
2018-03-31T23:14:43.777Z,5.20
2018-03-31T23:17:10.089Z,5.20
2018-03-31T23:19:36.408Z,5.20
2018-03-31T23:22:02.694Z,5.30
2018-03-31T23:24:28.997Z,5.30
2018-03-31T23:26:55.289Z,5.30
2018-03-31T23:29:21.953Z,5.30
2018-03-31T23:31:48.214Z,5.30
2018-03-31T23:34:14.494Z,5.30
2018-03-31T23:36:40.781Z,5.30
2018-03-31T23:39:07.029Z,5.30
2018-03-31T23:41:33.313Z,5.20
2018-03-31T23:43:59.601Z,5.30
2018-03-31T23:46:26.224Z,5.20
2018-03-31T23:48:52.583Z,5.20
2018-03-31T23:51:19.205Z,5.10
2018-03-31T23:53:45.466Z,5.20
2018-03-31T23:56:12.162Z,5.00
2018-03-31T23:58:38.454Z,5.00
